createdAt,value
2017-05-26T00:00:50.744Z,73.2
2017-05-26T00:01:53.091Z,73.2
2017-05-26T00:02:56.187Z,73
2017-05-26T00:03:58.526Z,72.9
2017-05-26T00:05:01.372Z,73.2
2017-05-26T00:06:04.219Z,73
2017-05-26T00:07:06.930Z,73.1
2017-05-26T00:08:10.029Z,73.2
2017-05-26T00:09:12.381Z,73.3
2017-05-26T00:10:15.094Z,73.4
2017-05-26T00:11:17.540Z,73.4
2017-05-26T00:12:20.389Z,73.5
2017-05-26T00:13:23.544Z,73.6
2017-05-26T00:14:25.894Z,73.7
2017-05-26T00:15:28.743Z,73.7
2017-05-26T00:16:31.536Z,73.8
2017-05-26T00:17:34.392Z,74
2017-05-26T00:19:39.902Z,73.9
2017-05-26T00:20:42.617Z,73.7
2017-05-26T00:21:45.472Z,73.6
2017-05-26T00:22:48.225Z,73.8
2017-05-26T00:23:50.570Z,73.8
2017-05-26T00:24:53.683Z,73.8
2017-05-26T00:25:56.029Z,74
2017-05-26T00:26:58.876Z,74
2017-05-26T00:28:01.722Z,74
2017-05-26T00:29:04.439Z,73.9
2017-05-26T00:30:07.653Z,73.9
2017-05-26T00:31:09.997Z,74.2
2017-05-26T00:32:12.341Z,74
2017-05-26T00:33:15.303Z,74.1
2017-05-26T00:34:18.022Z,74.2
2017-05-26T00:35:21.120Z,74.2
2017-05-26T00:36:23.461Z,74.4
2017-05-26T00:37:26.307Z,74.2
2017-05-26T00:38:29.159Z,74.3
2017-05-26T00:39:31.505Z,74.5
2017-05-26T00:40:34.600Z,74.6
2017-05-26T00:41:36.946Z,74.5
2017-05-26T00:42:39.801Z,74.5
2017-05-26T00:43:42.652Z,74.4
2017-05-26T00:44:45.367Z,74.5
2017-05-26T00:45:48.476Z,74.5
2017-05-26T00:46:50.689Z,74.3
2017-05-26T00:47:53.397Z,74.3
2017-05-26T00:48:56.248Z,74.4
2017-05-26T00:49:59.090Z,74.5
2017-05-26T00:51:02.189Z,74.5
2017-05-26T00:52:04.531Z,74.6
2017-05-26T00:53:07.244Z,74.4
2017-05-26T00:54:09.957Z,74.3
2017-05-26T00:55:12.864Z,74.6
2017-05-26T00:56:15.382Z,74.5
2017-05-26T00:57:17.825Z,74.7
2017-05-26T00:58:21.044Z,74.7
2017-05-26T00:59:23.446Z,74.7
2017-05-26T01:00:26.855Z,74.7
2017-05-26T01:02:31.858Z,74.7
2017-05-26T01:03:34.710Z,74.7
2017-05-26T01:04:37.611Z,74.9
2017-05-26T01:05:39.956Z,74.8
2017-05-26T01:06:42.809Z,74.8
2017-05-26T01:07:45.781Z,74.8
2017-05-26T01:08:48.182Z,74.8
2017-05-26T01:09:51.028Z,75.3
2017-05-26T01:10:53.874Z,75
2017-05-26T01:11:56.086Z,75
2017-05-26T01:12:59.189Z,75.6
2017-05-26T01:14:02.035Z,75.5
2017-05-26T01:15:04.379Z,75.5
2017-05-26T01:17:10.139Z,75.7
2017-05-26T01:18:13.106Z,75.7
2017-05-26T01:19:15.450Z,75.7
2017-05-26T01:21:20.710Z,75.8
2017-05-26T01:22:23.422Z,75.8
2017-05-26T01:23:26.523Z,76
2017-05-26T01:24:29.372Z,75.9
2017-05-26T01:25:31.711Z,76.2
2017-05-26T01:26:34.797Z,76.1
2017-05-26T01:27:37.506Z,76.2
2017-05-26T01:28:40.153Z,76.2
2017-05-26T01:29:43.003Z,76.3
2017-05-26T01:30:45.351Z,76.5
2017-05-26T01:31:48.061Z,76.4
2017-05-26T01:32:50.771Z,76.5
2017-05-26T01:33:53.872Z,76.5
2017-05-26T01:34:56.221Z,76.5
2017-05-26T01:35:59.070Z,76.8
2017-05-26T01:37:01.918Z,76.6
2017-05-26T01:38:04.763Z,76.8
2017-05-26T01:39:07.921Z,76.6
2017-05-26T01:40:10.265Z,77.1
2017-05-26T01:41:12.614Z,76.7
2017-05-26T01:42:15.327Z,77
2017-05-26T01:43:18.173Z,76.7
2017-05-26T01:44:21.274Z,76.8
2017-05-26T01:45:23.620Z,77
2017-05-26T01:46:26.336Z,76.8
2017-05-26T01:47:29.180Z,77
2017-05-26T01:48:32.035Z,76.8
2017-05-26T01:49:34.633Z,76.8
2017-05-26T01:50:37.479Z,76.9
2017-05-26T01:51:39.831Z,76.8
2017-05-26T01:52:42.681Z,76.8
2017-05-26T01:53:45.391Z,76.8
2017-05-26T01:54:48.355Z,76.7
2017-05-26T01:55:50.568Z,76.7
2017-05-26T01:56:53.443Z,77.1
2017-05-26T01:57:56.291Z,76.8
2017-05-26T01:58:59.137Z,77.1
2017-05-26T02:00:02.105Z,77.1
2017-05-26T02:01:04.450Z,77.3
2017-05-26T02:02:07.298Z,77
2017-05-26T02:03:10.009Z,77
2017-05-26T02:04:12.855Z,77.2
2017-05-26T02:05:15.879Z,77.2
2017-05-26T02:06:18.236Z,77.2
2017-05-26T02:07:20.959Z,77.1
2017-05-26T02:08:23.805Z,77.3
2017-05-26T02:09:26.383Z,77.2
2017-05-26T02:10:29.776Z,77.2
2017-05-26T02:11:31.616Z,77.4
2017-05-26T02:12:34.463Z,77.4
2017-05-26T02:13:37.313Z,77.3
2017-05-26T02:14:40.026Z,77.3
2017-05-26T02:15:43.179Z,77.5
2017-05-26T02:16:45.525Z,77.4
2017-05-26T02:17:47.866Z,77.7
2017-05-26T02:18:50.714Z,77.7
2017-05-26T02:19:53.294Z,77.6
2017-05-26T02:20:56.265Z,77.8
2017-05-26T02:21:59.114Z,78.3
2017-05-26T02:23:01.323Z,78.1
2017-05-26T02:24:04.172Z,78.2
2017-05-26T02:25:07.018Z,78.4
2017-05-26T02:26:10.118Z,78.6
2017-05-26T02:27:12.322Z,78.8
2017-05-26T02:28:15.170Z,78.7
2017-05-26T02:29:18.021Z,79.1
2017-05-26T02:30:20.877Z,79
2017-05-26T02:31:23.981Z,78.8
2017-05-26T02:32:26.322Z,78.7
2017-05-26T02:33:29.170Z,79
2017-05-26T02:34:31.513Z,79
2017-05-26T02:35:34.360Z,79.1
2017-05-26T02:36:37.459Z,79.5
2017-05-26T02:37:39.670Z,79.1
2017-05-26T02:38:42.946Z,78.9
2017-05-26T02:39:45.154Z,79.2
2017-05-26T02:40:47.866Z,78.9
2017-05-26T02:41:50.968Z,79.1
2017-05-26T02:42:53.393Z,78.9
2017-05-26T02:43:55.973Z,78.8
2017-05-26T02:44:58.821Z,79.4
2017-05-26T02:46:01.668Z,79.5
2017-05-26T02:47:04.767Z,79.7
2017-05-26T02:48:06.983Z,79.7
2017-05-26T02:49:09.693Z,79.6
2017-05-26T02:50:12.538Z,79.8
2017-05-26T02:51:15.385Z,79.9
2017-05-26T02:52:17.977Z,79.8
2017-05-26T02:54:23.239Z,80.2
2017-05-26T02:55:29.140Z,80.5
2017-05-26T02:56:28.964Z,80.5
2017-05-26T02:57:31.926Z,80.2
2017-05-26T02:58:34.138Z,80.5
2017-05-26T02:59:36.981Z,80.4
2017-05-26T03:00:39.826Z,80.5
2017-05-26T03:01:42.672Z,80.4
2017-05-26T03:02:45.270Z,80.9
2017-05-26T03:03:48.121Z,80.6
2017-05-26T03:04:50.694Z,80.9
2017-05-26T03:05:53.456Z,80.7
2017-05-26T03:06:56.311Z,80.5
2017-05-26T03:07:58.904Z,80.3
2017-05-26T03:09:01.609Z,80.3
2017-05-26T03:10:04.454Z,80.1
2017-05-26T03:11:06.798Z,80.2
2017-05-26T03:12:09.637Z,80.2
2017-05-26T03:13:12.730Z,80.1
2017-05-26T03:14:15.073Z,80.3
2017-05-26T03:15:17.579Z,80.5
2017-05-26T03:16:20.796Z,80.4
2017-05-26T03:17:23.380Z,80.2
2017-05-26T03:18:26.350Z,80.5
2017-05-26T03:19:28.691Z,80.8
2017-05-26T03:20:31.534Z,80.5
2017-05-26T03:21:34.376Z,80.3
2017-05-26T03:22:37.215Z,80.3
2017-05-26T03:23:39.858Z,80.5
2017-05-26T03:24:42.196Z,80.6
2017-05-26T03:25:45.410Z,80.6
2017-05-26T03:26:47.750Z,80.5
2017-05-26T03:27:50.593Z,80.5
2017-05-26T03:28:53.690Z,80.7
2017-05-26T03:29:56.027Z,80.4
2017-05-26T03:30:58.874Z,80.3
2017-05-26T03:32:01.715Z,80.3
2017-05-26T03:33:04.049Z,80.2
2017-05-26T03:34:07.145Z,80.4
2017-05-26T03:35:09.483Z,80.6
2017-05-26T03:36:12.328Z,80.8
2017-05-26T03:37:15.176Z,81
2017-05-26T03:38:17.881Z,80.6
2017-05-26T03:39:20.838Z,80.9
2017-05-26T03:40:23.181Z,80.9
2017-05-26T03:41:25.891Z,81.3
2017-05-26T03:42:28.732Z,81.4
2017-05-26T03:43:31.444Z,81.2
2017-05-26T03:44:35.097Z,80.8
2017-05-26T03:45:36.932Z,80.9
2017-05-26T03:46:39.507Z,81.2
2017-05-26T03:47:42.353Z,80.9
2017-05-26T03:48:45.122Z,80.7
2017-05-26T03:49:48.220Z,80.6
2017-05-26T03:50:50.559Z,80.3
2017-05-26T03:51:53.200Z,80.1
2017-05-26T03:52:56.046Z,80
2017-05-26T03:53:58.892Z,80
2017-05-26T03:55:01.984Z,80.2
2017-05-26T03:56:04.323Z,80
2017-05-26T03:57:07.167Z,80
2017-05-26T03:58:09.505Z,80
2017-05-26T03:59:12.353Z,80.5
2017-05-26T04:00:15.315Z,80.6
2017-05-26T04:01:18.024Z,80.6
2017-05-26T04:02:20.866Z,81.1
2017-05-26T04:03:23.214Z,80.8
2017-05-26T04:04:26.057Z,80.9
2017-05-26T04:05:29.147Z,80.7
2017-05-26T04:06:31.488Z,80.4
2017-05-26T04:07:33.929Z,80.3
2017-05-26T04:08:37.275Z,80.5
2017-05-26T04:09:39.617Z,80
2017-05-26T04:10:42.709Z,79.5
2017-05-26T04:11:45.054Z,79.1
2017-05-26T04:12:47.897Z,78.9
2017-05-26T04:13:50.738Z,78.6
2017-05-26T04:14:53.583Z,78.3
2017-05-26T04:15:56.732Z,77.7
2017-05-26T04:16:59.072Z,77.4
2017-05-26T04:18:01.919Z,77.2
2017-05-26T04:19:04.255Z,77
2017-05-26T04:20:07.096Z,76.8
2017-05-26T04:21:10.101Z,76.3
2017-05-26T04:22:12.538Z,75.8
2017-05-26T04:23:15.245Z,75.5
2017-05-26T04:24:17.954Z,75.3
2017-05-26T04:25:20.800Z,74.9
2017-05-26T04:26:23.758Z,74.5
2017-05-26T04:27:26.600Z,74.3
2017-05-26T04:28:28.806Z,74.2
2017-05-26T04:29:31.724Z,73.6
2017-05-26T04:30:34.977Z,73.2
2017-05-26T04:31:38.115Z,72.8
2017-05-26T04:32:39.951Z,72.3
2017-05-26T04:33:42.663Z,72.6
2017-05-26T04:34:45.881Z,72.4
2017-05-26T04:35:48.725Z,72.5
2017-05-26T04:36:51.314Z,72
2017-05-26T04:37:54.155Z,71.6
2017-05-26T04:38:56.998Z,71.3
2017-05-26T04:39:59.887Z,71.2
2017-05-26T04:41:02.225Z,71
2017-05-26T04:42:05.320Z,70.4
2017-05-26T04:43:08.035Z,70.3
2017-05-26T04:45:13.289Z,69.9
2017-05-26T04:46:16.140Z,69.9
2017-05-26T04:47:19.101Z,69.5
2017-05-26T04:48:21.945Z,69.4
2017-05-26T04:49:24.809Z,69
2017-05-26T04:50:27.181Z,68.7
2017-05-26T04:51:29.894Z,68.4
2017-05-26T04:52:33.364Z,68.6
2017-05-26T04:53:35.578Z,68.5
2017-05-26T04:54:38.420Z,68.3
2017-05-26T04:55:41.265Z,68.2
2017-05-26T04:56:43.974Z,68.4
2017-05-26T04:57:47.074Z,67.8
2017-05-26T04:58:49.425Z,67.9
2017-05-26T04:59:52.495Z,68.1
2017-05-26T05:00:55.375Z,67.7
2017-05-26T05:01:58.214Z,67
2017-05-26T05:03:00.859Z,67
2017-05-26T05:04:03.708Z,66.9
2017-05-26T05:05:06.548Z,67.1
2017-05-26T05:06:09.391Z,67
2017-05-26T05:07:12.097Z,67
2017-05-26T05:08:15.103Z,67.2
2017-05-26T05:09:17.815Z,67
2017-05-26T05:10:20.154Z,66.8
2017-05-26T05:11:23.000Z,66.6
2017-05-26T05:12:25.841Z,66.3
2017-05-26T05:13:28.931Z,66.7
2017-05-26T05:14:31.770Z,66.4
2017-05-26T05:15:34.627Z,66.4
2017-05-26T05:16:37.015Z,66.4
2017-05-26T05:17:39.860Z,66
2017-05-26T05:18:43.014Z,65.5
2017-05-26T05:20:48.278Z,64.8
2017-05-26T05:21:51.120Z,64.9
2017-05-26T05:22:53.824Z,65
2017-05-26T05:23:56.923Z,65.2
2017-05-26T05:26:02.674Z,65.3
2017-05-26T05:28:08.160Z,65.8
2017-05-26T05:29:11.118Z,66.1
2017-05-26T05:30:13.962Z,66.3
2017-05-26T05:31:16.870Z,66.6
2017-05-26T05:32:19.076Z,66.9
2017-05-26T05:33:22.428Z,67.2
2017-05-26T05:34:25.071Z,67.3
2017-05-26T05:35:27.910Z,67.5
2017-05-26T05:36:30.751Z,67.6
2017-05-26T05:37:33.592Z,67.2
2017-05-26T05:38:36.310Z,67.1
2017-05-26T05:39:39.412Z,66.7
2017-05-26T05:40:41.765Z,66.6
2017-05-26T05:41:44.609Z,66.3
2017-05-26T05:42:47.459Z,65.9
2017-05-26T05:43:50.167Z,65.7
2017-05-26T05:44:53.262Z,66.1
2017-05-26T05:45:56.106Z,66.1
2017-05-26T05:46:58.443Z,65.8
2017-05-26T05:48:01.286Z,65.8
2017-05-26T05:49:04.130Z,66.1
2017-05-26T05:50:07.223Z,66.1
2017-05-26T05:51:09.860Z,65.6
2017-05-26T05:52:12.572Z,65
2017-05-26T05:53:15.141Z,64.8
2017-05-26T05:54:18.354Z,64.3
2017-05-26T05:55:21.452Z,64
2017-05-26T05:56:23.786Z,63.5
2017-05-26T05:57:26.631Z,63.1
2017-05-26T05:58:29.473Z,63.2
2017-05-26T05:59:32.318Z,62.9
2017-05-26T06:00:35.331Z,62.6
2017-05-26T06:01:38.180Z,62.1
2017-05-26T06:02:41.018Z,62.1
2017-05-26T06:03:43.860Z,62
2017-05-26T06:04:46.705Z,62.1
2017-05-26T06:05:49.854Z,62.1
2017-05-26T06:06:52.193Z,62.5
2017-05-26T06:07:55.039Z,62.8
2017-05-26T06:08:57.892Z,62.8
2017-05-26T06:10:00.736Z,63
2017-05-26T06:11:03.828Z,63
2017-05-26T06:12:06.169Z,62.9
2017-05-26T06:13:09.013Z,62.9
2017-05-26T06:14:11.862Z,63.2
2017-05-26T06:15:14.704Z,64
2017-05-26T06:16:17.669Z,64.5
2017-05-26T06:17:20.243Z,64.9
2017-05-26T06:18:23.456Z,65
2017-05-26T06:19:26.305Z,65
2017-05-26T06:20:29.147Z,65.1
2017-05-26T06:21:32.241Z,65.5
2017-05-26T06:22:34.311Z,65.5
2017-05-26T06:23:37.662Z,65.4
2017-05-26T06:25:42.913Z,65.1
2017-05-26T06:26:46.009Z,65.2
2017-05-26T06:27:48.850Z,65.4
2017-05-26T06:28:51.558Z,65.3
2017-05-26T06:29:54.400Z,65.1
2017-05-26T06:30:56.976Z,64.5
2017-05-26T06:32:00.076Z,64.4
2017-05-26T06:33:02.792Z,64.3
2017-05-26T06:34:05.502Z,64.1
2017-05-26T06:35:08.580Z,64
2017-05-26T06:36:11.426Z,64.1
2017-05-26T06:37:14.527Z,64.3
2017-05-26T06:38:17.237Z,64.3
2017-05-26T06:39:19.948Z,63.8
2017-05-26T06:40:22.787Z,64
2017-05-26T06:41:25.631Z,64
2017-05-26T06:42:28.591Z,63.7
2017-05-26T06:43:30.927Z,63.5
2017-05-26T06:44:33.670Z,63.1
2017-05-26T06:45:36.878Z,63
2017-05-26T06:46:39.720Z,62.8
2017-05-26T06:48:45.724Z,62.5
2017-05-26T06:49:48.069Z,61.4
2017-05-26T06:50:50.776Z,61.4
2017-05-26T06:51:53.635Z,61.4
2017-05-26T06:52:56.476Z,61
2017-05-26T06:53:59.939Z,59.9
2017-05-26T06:55:02.283Z,59.2
2017-05-26T06:56:04.998Z,58.5
2017-05-26T06:57:08.073Z,58.7
2017-05-26T06:58:10.910Z,58.6
2017-05-26T06:59:14.003Z,58.7
2017-05-26T07:00:16.574Z,58.3
2017-05-26T07:01:19.152Z,58.7
2017-05-26T07:02:22.499Z,58.5
2017-05-26T07:03:25.343Z,58.3
2017-05-26T07:04:28.445Z,58.5
2017-05-26T07:05:30.648Z,58.7
2017-05-26T07:06:33.489Z,58.8
2017-05-26T07:07:36.702Z,59
2017-05-26T07:08:39.412Z,59.5
2017-05-26T07:09:42.427Z,59.8
2017-05-26T07:10:45.196Z,59.7
2017-05-26T07:11:48.041Z,59.6
2017-05-26T07:12:50.889Z,59.7
2017-05-26T07:13:53.734Z,59.7
2017-05-26T07:14:56.828Z,59.8
2017-05-26T07:15:59.540Z,59.8
2017-05-26T07:17:02.384Z,59.8
2017-05-26T07:18:05.089Z,60
2017-05-26T07:19:07.796Z,60
2017-05-26T07:20:10.896Z,59.9
2017-05-26T07:21:13.612Z,59.7
2017-05-26T07:22:16.454Z,59.5
2017-05-26T07:23:19.871Z,59.8
2017-05-26T07:24:22.214Z,59.8
2017-05-26T07:25:25.310Z,60
2017-05-26T07:26:28.160Z,60.2
2017-05-26T07:28:33.778Z,60.2
2017-05-26T07:29:36.618Z,60.2
2017-05-26T07:30:39.583Z,60.1
2017-05-26T07:31:42.426Z,60.3
2017-05-26T07:32:45.271Z,60.5
2017-05-26T07:33:47.981Z,60.6
2017-05-26T07:34:50.823Z,60.6
2017-05-26T07:35:53.915Z,60.4
2017-05-26T07:36:56.769Z,60.6
2017-05-26T07:37:59.475Z,60.7
2017-05-26T07:39:02.319Z,60.9
2017-05-26T07:40:05.033Z,60.8
2017-05-26T07:41:08.368Z,61.3
2017-05-26T07:42:10.571Z,61.3
2017-05-26T07:43:13.918Z,61.3
2017-05-26T07:44:16.494Z,61.3
2017-05-26T07:45:19.334Z,61.3
2017-05-26T07:46:22.529Z,61.3
2017-05-26T07:47:25.376Z,61.4
2017-05-26T07:48:28.221Z,61.5
2017-05-26T07:49:31.066Z,61.6
2017-05-26T07:50:33.643Z,61.6
2017-05-26T07:51:36.736Z,61.9
2017-05-26T07:52:39.580Z,61.9
2017-05-26T07:53:42.286Z,61.9
2017-05-26T07:54:45.133Z,61.8
2017-05-26T07:55:47.972Z,61.9
2017-05-26T07:56:51.071Z,62
2017-05-26T07:57:53.915Z,61.9
2017-05-26T07:58:56.766Z,62
2017-05-26T07:59:59.476Z,62
2017-05-26T08:01:02.318Z,62.2
2017-05-26T08:02:05.410Z,62.3
2017-05-26T08:03:08.116Z,62.3
2017-05-26T08:04:10.823Z,62.1
2017-05-26T08:05:13.535Z,61.7
2017-05-26T08:06:16.379Z,61.6
2017-05-26T08:07:19.540Z,61.2
2017-05-26T08:08:22.251Z,61.1
2017-05-26T08:09:25.100Z,60.9
2017-05-26T08:10:27.944Z,60.8
2017-05-26T08:11:30.793Z,60.6
2017-05-26T08:12:33.887Z,60.5
2017-05-26T08:13:36.790Z,60.5
2017-05-26T08:14:40.045Z,60.5
2017-05-26T08:15:42.392Z,60.4
2017-05-26T08:16:45.237Z,60.6
2017-05-26T08:17:48.327Z,60.7
2017-05-26T08:18:50.664Z,60.5
2017-05-26T08:19:53.884Z,61.2
2017-05-26T08:20:56.729Z,61.4
2017-05-26T08:21:59.312Z,61.8
2017-05-26T08:23:02.780Z,61.9
2017-05-26T08:24:05.127Z,63.1
2017-05-26T08:25:07.833Z,63.5
2017-05-26T08:26:11.044Z,64.4
2017-05-26T08:27:13.889Z,64.3
2017-05-26T08:28:16.850Z,64.2
2017-05-26T08:29:19.560Z,65
2017-05-26T08:30:22.403Z,64.9
2017-05-26T08:31:25.249Z,64.6
2017-05-26T08:32:27.953Z,65.1
2017-05-26T08:33:31.048Z,64.7
2017-05-26T08:35:36.834Z,65.4
2017-05-26T08:36:39.685Z,64.8
2017-05-26T08:37:42.394Z,65.6
2017-05-26T08:38:45.353Z,65.9
2017-05-26T08:39:48.204Z,65.3
2017-05-26T08:40:51.047Z,64.8
2017-05-26T08:41:53.757Z,64.2
2017-05-26T08:42:56.464Z,64.1
2017-05-26T08:43:59.432Z,63.8
2017-05-26T08:45:02.144Z,63.8
2017-05-26T08:46:04.984Z,63.8
2017-05-26T08:47:08.195Z,63.6
2017-05-26T08:48:11.037Z,63.3
2017-05-26T08:49:14.049Z,62.8
2017-05-26T08:50:16.392Z,62.5
2017-05-26T08:51:19.165Z,62.7
2017-05-26T08:52:22.372Z,62.4
2017-05-26T08:53:25.211Z,61.8
2017-05-26T08:55:31.087Z,61.5
2017-05-26T08:57:36.336Z,61.5
2017-05-26T08:58:39.045Z,61.7
2017-05-26T08:59:42.255Z,61.6
2017-05-26T09:00:45.965Z,60.7
2017-05-26T09:01:47.805Z,59.8
2017-05-26T09:02:50.647Z,60
2017-05-26T09:03:53.502Z,60.1
2017-05-26T09:04:56.891Z,59.8
2017-05-26T09:05:59.352Z,59.9
2017-05-26T09:07:02.193Z,59.7
2017-05-26T09:08:05.034Z,59.2
2017-05-26T09:09:08.312Z,58.8
2017-05-26T09:10:10.887Z,58.4
2017-05-26T09:11:13.845Z,57.4
2017-05-26T09:13:19.331Z,55.9
2017-05-26T09:14:22.543Z,55.6
2017-05-26T09:15:25.385Z,55.5
2017-05-26T09:16:28.213Z,54.8
2017-05-26T09:17:30.789Z,54.7
2017-05-26T09:18:34.005Z,53.7
2017-05-26T09:19:36.583Z,52.6
2017-05-26T09:20:39.659Z,53.1
2017-05-26T09:21:42.752Z,52.2
2017-05-26T09:22:45.600Z,52.6
2017-05-26T09:23:48.440Z,52.4
2017-05-26T09:24:51.281Z,50.9
2017-05-26T09:25:54.130Z,51.3
2017-05-26T09:26:57.088Z,51.6
2017-05-26T09:27:59.930Z,51.7
2017-05-26T09:29:02.694Z,52.2
2017-05-26T09:30:05.908Z,52.3
2017-05-26T09:32:11.831Z,51.8
2017-05-26T09:33:14.538Z,51.6
2017-05-26T09:34:17.378Z,51.4
2017-05-26T09:35:20.270Z,51
2017-05-26T09:36:23.622Z,50.6
2017-05-26T09:37:26.651Z,50
2017-05-26T09:38:29.495Z,50.6
2017-05-26T09:39:32.195Z,50.3
2017-05-26T09:40:35.083Z,50.4
2017-05-26T09:41:37.930Z,50.2
2017-05-26T09:42:40.941Z,50.2
2017-05-26T09:43:44.159Z,50.4
2017-05-26T09:44:47.012Z,51.1
2017-05-26T09:45:49.854Z,50.7
2017-05-26T09:46:52.563Z,50.7
2017-05-26T09:47:56.021Z,50.9
2017-05-26T09:48:58.730Z,50.8
2017-05-26T09:50:01.574Z,50.4
2017-05-26T09:51:04.445Z,50.3
2017-05-26T09:52:07.654Z,50
2017-05-26T09:53:10.982Z,49.7
2017-05-26T09:54:13.326Z,49
2017-05-26T09:55:16.168Z,49.7
2017-05-26T09:56:19.518Z,49.3
2017-05-26T09:57:22.225Z,48.6
2017-05-26T09:58:25.185Z,48.3
2017-05-26T09:59:27.900Z,48.2
2017-05-26T10:00:31.250Z,48.8
2017-05-26T10:02:36.736Z,48.4
2017-05-26T10:03:40.329Z,48.7
2017-05-26T10:04:43.038Z,48.8
2017-05-26T10:05:45.612Z,48.9
2017-05-26T10:06:48.958Z,48.9
2017-05-26T10:07:51.796Z,50
2017-05-26T10:08:54.757Z,49.7
2017-05-26T10:09:57.603Z,50.1
2017-05-26T10:11:00.950Z,50.2
2017-05-26T10:12:03.654Z,50.2
2017-05-26T10:13:06.876Z,51
2017-05-26T10:14:09.974Z,51.8
2017-05-26T10:15:12.682Z,51.9
2017-05-26T10:16:15.523Z,52.2
2017-05-26T10:17:18.235Z,52
2017-05-26T10:18:21.576Z,52.2
2017-05-26T10:19:24.599Z,52.1
2017-05-26T10:20:27.441Z,52
2017-05-26T10:21:30.284Z,52.2
2017-05-26T10:22:33.127Z,52.5
2017-05-26T10:23:35.968Z,52.5
2017-05-26T10:25:42.204Z,52.5
2017-05-26T10:26:44.910Z,52.3
2017-05-26T10:27:47.752Z,52.5
2017-05-26T10:28:50.594Z,51.8
2017-05-26T10:29:53.801Z,52.1
2017-05-26T10:30:56.769Z,52.5
2017-05-26T10:31:59.339Z,51.9
2017-05-26T10:33:02.684Z,52.6
2017-05-26T10:34:05.532Z,51.8
2017-05-26T10:35:08.382Z,51.9
2017-05-26T10:36:11.475Z,52.4
2017-05-26T10:37:14.368Z,51.9
2017-05-26T10:38:17.081Z,51.9
2017-05-26T10:39:19.850Z,51.7
2017-05-26T10:40:22.697Z,51.9
2017-05-26T10:41:26.293Z,52.2
2017-05-26T10:42:28.646Z,52
2017-05-26T10:43:31.492Z,52.3
2017-05-26T10:44:34.339Z,51.7
2017-05-26T10:45:37.553Z,51.8
2017-05-26T10:46:40.512Z,52.2
2017-05-26T10:47:43.354Z,52.2
2017-05-26T10:48:46.059Z,51.8
2017-05-26T10:49:49.276Z,51.3
2017-05-26T10:50:52.123Z,51.7
2017-05-26T10:51:55.214Z,52.1
2017-05-26T10:52:58.061Z,52.7
2017-05-26T10:54:00.908Z,52.4
2017-05-26T10:55:03.622Z,52.8
2017-05-26T10:56:06.468Z,52.7
2017-05-26T10:57:09.933Z,51.4
2017-05-26T10:58:12.272Z,51.1
2017-05-26T10:59:15.489Z,51.2
2017-05-26T11:02:24.410Z,50.7
2017-05-26T11:03:27.258Z,50.1
2017-05-26T11:04:30.103Z,48.4
2017-05-26T11:05:32.694Z,48.4
2017-05-26T11:06:35.401Z,49.8
2017-05-26T11:07:38.867Z,49.9
2017-05-26T11:08:41.712Z,50.1
2017-05-26T11:09:44.425Z,50.3
2017-05-26T11:10:47.138Z,50
2017-05-26T11:11:50.497Z,50.8
2017-05-26T11:12:53.590Z,50.7
2017-05-26T11:13:56.302Z,51.2
2017-05-26T11:14:59.143Z,51.6
2017-05-26T11:16:01.856Z,51.7
2017-05-26T11:17:04.691Z,51
2017-05-26T11:18:08.205Z,51.2
2017-05-26T11:19:10.645Z,51.2
2017-05-26T11:20:13.497Z,50.5
2017-05-26T11:21:16.202Z,50.1
2017-05-26T11:22:18.909Z,46.6
2017-05-26T11:23:22.384Z,47.8
2017-05-26T11:24:25.232Z,48.6
2017-05-26T11:25:28.074Z,48.6
2017-05-26T11:26:30.779Z,49.1
2017-05-26T11:27:33.614Z,49.7
2017-05-26T11:28:36.711Z,49.2
2017-05-26T11:29:39.557Z,49
2017-05-26T11:30:42.402Z,49.1
2017-05-26T11:31:45.251Z,47.8
2017-05-26T11:32:48.330Z,47.5
2017-05-26T11:33:51.482Z,47.9
2017-05-26T11:34:54.324Z,48
2017-05-26T11:35:57.173Z,47.8
2017-05-26T11:36:59.881Z,47.3
2017-05-26T11:38:02.725Z,47.4
2017-05-26T11:39:05.816Z,46.3
2017-05-26T11:40:08.658Z,46.4
2017-05-26T11:41:11.502Z,46.9
2017-05-26T11:42:14.351Z,46.5
2017-05-26T11:43:17.197Z,47.3
2017-05-26T11:44:20.660Z,47.5
2017-05-26T11:45:22.998Z,45.4
2017-05-26T11:46:25.840Z,45.5
2017-05-26T11:47:28.547Z,45.9
2017-05-26T11:48:31.890Z,46.3
2017-05-26T11:49:34.739Z,46.9
2017-05-26T11:50:37.578Z,47.1
2017-05-26T11:52:43.343Z,47.2
2017-05-26T11:53:46.187Z,46.7
2017-05-26T11:54:49.280Z,45.8
2017-05-26T11:56:55.034Z,45.5
2017-05-26T11:57:57.605Z,45.1
2017-05-26T11:59:00.818Z,45
2017-05-26T12:00:03.964Z,45
2017-05-26T12:01:06.805Z,45.7
2017-05-26T12:02:09.647Z,45.9
2017-05-26T12:03:12.491Z,46.4
2017-05-26T12:04:15.337Z,46.8
2017-05-26T12:05:18.355Z,47.1
2017-05-26T12:06:20.800Z,46.3
2017-05-26T12:07:24.010Z,45.6
2017-05-26T12:08:26.853Z,45.9
2017-05-26T12:09:29.695Z,46
2017-05-26T12:10:32.789Z,45.9
2017-05-26T12:11:35.630Z,45.2
2017-05-26T12:12:38.473Z,45.3
2017-05-26T12:13:41.322Z,45.6
2017-05-26T12:14:44.215Z,45.9
2017-05-26T12:15:47.323Z,46
2017-05-26T12:16:50.164Z,43.4
2017-05-26T12:17:52.870Z,43.5
2017-05-26T12:18:55.709Z,42.8
2017-05-26T12:19:58.550Z,42.3
2017-05-26T12:21:02.115Z,42.9
2017-05-26T12:22:04.451Z,42.6
2017-05-26T12:23:07.669Z,41.1
2017-05-26T12:24:10.381Z,41.2
2017-05-26T12:25:13.224Z,42
2017-05-26T12:26:16.315Z,42.2
2017-05-26T12:28:22.075Z,41.7
2017-05-26T12:29:24.922Z,41.8
2017-05-26T12:30:27.772Z,41.8
2017-05-26T12:31:30.866Z,42.4
2017-05-26T12:32:33.621Z,41.9
2017-05-26T12:33:36.464Z,42.4
2017-05-26T12:34:39.310Z,42.4
2017-05-26T12:35:42.155Z,42.5
2017-05-26T12:36:45.252Z,42.4
2017-05-26T12:37:48.192Z,41.7
2017-05-26T12:38:51.029Z,41.8
2017-05-26T12:39:53.737Z,41.9
2017-05-26T12:40:57.081Z,42
2017-05-26T12:41:59.913Z,42
2017-05-26T12:43:02.618Z,42.1
2017-05-26T12:44:05.463Z,42.2
2017-05-26T12:45:08.305Z,42.6
2017-05-26T12:46:11.148Z,42.5
2017-05-26T12:47:14.752Z,43
2017-05-26T12:48:16.959Z,42.7
2017-05-26T12:49:20.307Z,43.5
2017-05-26T12:50:23.014Z,43.5
2017-05-26T12:51:25.724Z,43.4
2017-05-26T12:52:29.189Z,42.6
2017-05-26T12:53:31.530Z,42.8
2017-05-26T12:54:34.370Z,43.5
2017-05-26T12:55:37.713Z,44.1
2017-05-26T12:56:40.561Z,44.1
2017-05-26T12:57:43.658Z,44.4
2017-05-26T12:58:46.006Z,44.5
2017-05-26T12:59:49.355Z,44.6
2017-05-26T13:00:52.195Z,44.5
2017-05-26T13:01:55.037Z,45
2017-05-26T13:02:58.177Z,44.7
2017-05-26T13:04:01.021Z,45.1
2017-05-26T13:05:03.912Z,44.5
2017-05-26T13:06:06.754Z,44.1
2017-05-26T13:07:10.143Z,44.3
2017-05-26T13:08:12.738Z,44.3
2017-05-26T13:09:15.578Z,44
2017-05-26T13:10:18.285Z,44.7
2017-05-26T13:11:21.129Z,45.2
2017-05-26T13:12:24.080Z,45.4
2017-05-26T13:13:27.040Z,45.5
2017-05-26T13:14:29.883Z,45.4
2017-05-26T13:15:32.732Z,45.2
2017-05-26T13:16:35.576Z,45.4
2017-05-26T13:17:38.417Z,45.5
2017-05-26T13:18:41.879Z,45.9
2017-05-26T13:19:44.585Z,45.5
2017-05-26T13:20:47.426Z,45.5
2017-05-26T13:21:50.270Z,45.8
2017-05-26T13:22:52.978Z,45.6
2017-05-26T13:23:56.464Z,45.6
2017-05-26T13:24:59.172Z,45.4
2017-05-26T13:26:02.014Z,45.7
2017-05-26T13:27:04.722Z,45.6
2017-05-26T13:28:07.997Z,45.6
2017-05-26T13:30:13.871Z,45.1
2017-05-26T13:31:16.713Z,45.4
2017-05-26T13:32:19.556Z,45.7
2017-05-26T13:33:22.396Z,45.8
2017-05-26T13:34:25.469Z,45.7
2017-05-26T13:35:28.562Z,45.3
2017-05-26T13:36:30.905Z,45.7
2017-05-26T13:38:36.660Z,45.2
2017-05-26T13:39:40.011Z,45
2017-05-26T13:40:43.109Z,45
2017-05-26T13:41:45.819Z,44.5
2017-05-26T13:42:48.667Z,44.7
2017-05-26T13:43:51.379Z,44.5
2017-05-26T13:44:54.588Z,44.6
2017-05-26T13:45:57.678Z,45.1
2017-05-26T13:47:00.392Z,45.6
2017-05-26T13:48:03.229Z,45.9
2017-05-26T13:49:06.065Z,46.1
2017-05-26T13:50:08.905Z,46.3
2017-05-26T13:51:11.731Z,46.4
2017-05-26T13:52:14.946Z,46.1
2017-05-26T13:53:17.784Z,46.4
2017-05-26T13:54:20.549Z,46.1
2017-05-26T13:55:23.320Z,46
2017-05-26T13:57:29.559Z,46
2017-05-26T13:58:32.405Z,45.7
2017-05-26T13:59:35.249Z,46.2
2017-05-26T14:00:37.963Z,46.1
2017-05-26T14:01:40.804Z,45.8
2017-05-26T14:02:44.403Z,46.2
2017-05-26T14:03:46.738Z,46.4
2017-05-26T14:04:49.578Z,46.2
2017-05-26T14:06:55.831Z,45.8
2017-05-26T14:07:58.788Z,45.3
2017-05-26T14:09:01.497Z,45.5
2017-05-26T14:11:07.257Z,45.8
2017-05-26T14:12:10.102Z,45.7
2017-05-26T14:13:13.194Z,45.6
2017-05-26T14:14:16.042Z,45.2
2017-05-26T14:15:18.881Z,45.4
2017-05-26T14:16:21.726Z,44.8
2017-05-26T14:17:25.072Z,44.8
2017-05-26T14:18:28.040Z,44
2017-05-26T14:19:30.751Z,43.7
2017-05-26T14:20:33.591Z,43.4
2017-05-26T14:21:36.430Z,43.6
2017-05-26T14:22:39.501Z,44.6
2017-05-26T14:23:42.461Z,44.5
2017-05-26T14:24:45.169Z,44.5
2017-05-26T14:25:48.424Z,44.4
2017-05-26T14:27:53.907Z,44.8
2017-05-26T14:28:57.503Z,45
2017-05-26T14:29:59.702Z,45.1
2017-05-26T14:31:03.045Z,45.4
2017-05-26T14:32:05.750Z,45.5
2017-05-26T14:33:08.889Z,45
2017-05-26T14:34:12.533Z,45.1